Time;durP1;ratioP1;P1;durP2;ratioP2;P2;SDS_P1;SDS_P2;PMS_P1;PMS_P2;Temp;Humidity;BMP_temperature;BMP_pressure;BME280_temperature;BME280_humidity;BME280_pressure;Samples;Min_cycle;Max_cycle;Signal;HPM_P1;HPM_P2
2023/03/20 00:01:21;;;;;;;0.93;0.93;;;;;;;8.80;100.00;96905.63;5072657;28;20198;-57
2023/03/20 00:03:48;;;;;;;0.83;0.80;;;;;;;8.84;100.00;96900.00;5072897;28;20194;-55
2023/03/20 00:06:16;;;;;;;1.23;0.90;;;;;;;8.94;100.00;96903.53;5072462;28;20302;-57
2023/03/20 00:08:44;;;;;;;4.07;1.10;;;;;;;8.99;100.00;96906.66;5072865;28;20561;-58
2023/03/20 00:11:25;;;;;;;3.57;1.23;;;;;;;8.95;100.00;96907.03;5073062;28;20198;-58
2023/03/20 00:13:51;;;;;;;1.33;1.20;;;;;;;8.88;100.00;96911.13;5072933;28;20727;-58
2023/03/20 00:16:30;;;;;;;2.93;1.10;;;;;;;8.97;100.00;96907.72;5075253;28;20249;-59
2023/03/20 00:18:57;;;;;;;1.30;1.20;;;;;;;8.86;100.00;96913.88;5075845;28;20515;-56
2023/03/20 00:21:24;;;;;;;1.37;1.10;;;;;;;8.89;100.00;96910.97;5075614;28;20203;-58
2023/03/20 00:23:51;;;;;;;1.90;1.30;;;;;;;8.95;100.00;96913.13;5073746;28;20524;-58
2023/03/20 00:26:19;;;;;;;1.10;1.10;;;;;;;8.96;100.00;96904.25;5072609;28;20202;-57
2023/03/20 00:28:47;;;;;;;1.07;1.07;;;;;;;8.98;100.00;96904.13;5072065;28;20198;-56
2023/03/20 00:31:24;;;;;;;2.20;1.30;;;;;;;9.06;100.00;96900.84;5071305;28;20263;-57
2023/03/20 00:33:51;;;;;;;2.77;1.40;;;;;;;9.07;100.00;96905.19;5071854;28;20316;-57
2023/03/20 00:36:18;;;;;;;1.20;1.20;;;;;;;9.02;100.00;96905.56;5072376;28;20214;-58
2023/03/20 00:38:47;;;;;;;1.97;1.87;;;;;;;9.07;100.00;96902.53;5078522;28;20220;-58
2023/03/20 00:41:21;;;;;;;1.90;1.53;;;;;;;9.13;100.00;96904.66;5079667;28;20219;-58
2023/03/20 00:43:51;;;;;;;1.60;1.50;;;;;;;9.18;100.00;96905.09;5075445;28;20256;-56
2023/03/20 00:46:18;;;;;;;2.23;1.93;;;;;;;9.22;100.00;96902.09;5071557;28;20195;-56
2023/03/20 00:48:46;;;;;;;2.07;1.87;;;;;;;9.19;100.00;96912.91;5071227;28;20572;-57
2023/03/20 00:51:13;;;;;;;2.07;1.83;;;;;;;9.27;100.00;96912.25;5070798;28;20210;-57
2023/03/20 00:53:40;;;;;;;1.40;1.40;;;;;;;9.29;100.00;96907.69;5071094;28;20226;-58
2023/03/20 00:56:07;;;;;;;2.13;2.03;;;;;;;9.24;100.00;96907.25;5071677;28;20655;-58
2023/03/20 00:58:33;;;;;;;2.03;1.93;;;;;;;9.23;100.00;96902.91;5071723;28;20206;-57
2023/03/20 01:01:00;;;;;;;1.77;1.67;;;;;;;9.15;100.00;96903.56;5072203;28;20206;-58
2023/03/20 01:03:28;;;;;;;2.20;2.00;;;;;;;9.17;100.00;96906.94;5072704;28;20214;-58
2023/03/20 01:05:57;;;;;;;2.13;2.03;;;;;;;9.19;100.00;96906.78;5072107;28;20208;-57
2023/03/20 01:08:25;;;;;;;2.27;2.07;;;;;;;9.18;100.00;96905.09;5072930;28;20198;-57
2023/03/20 01:10:55;;;;;;;2.30;2.20;;;;;;;9.18;100.00;96900.66;5071750;28;20210;-57
2023/03/20 01:13:23;;;;;;;2.70;2.50;;;;;;;9.12;100.00;96901.19;5071304;28;20247;-57
2023/03/20 01:15:51;;;;;;;3.13;2.90;;;;;;;9.19;100.00;96901.50;5073515;28;20595;-58
2023/03/20 01:18:20;;;;;;;2.70;2.60;;;;;;;9.16;100.00;96896.47;5071473;28;20344;-56
2023/03/20 01:20:47;;;;;;;3.33;3.13;;;;;;;9.09;100.00;96897.97;5071275;28;20206;-55
2023/03/20 01:23:17;;;;;;;3.33;3.07;;;;;;;9.11;100.00;96893.38;5071247;28;20191;-56
2023/03/20 01:25:43;;;;;;;3.57;3.27;;;;;;;9.12;100.00;96890.63;5071490;28;20637;-56
2023/03/20 01:28:15;;;;;;;3.30;3.10;;;;;;;9.07;100.00;96892.81;5071000;28;20199;-56
2023/03/20 01:30:42;;;;;;;3.93;3.70;;;;;;;9.13;100.00;96896.75;5071800;28;20597;-57
2023/03/20 01:33:19;;;;;;;3.47;3.27;;;;;;;9.21;100.00;96899.59;5069940;28;20234;-58
2023/03/20 01:35:47;;;;;;;4.43;3.93;;;;;;;9.25;100.00;96900.97;5071033;28;20202;-58
2023/03/20 01:38:18;;;;;;;3.27;2.90;;;;;;;9.23;100.00;96897.66;5070861;28;20513;-57
2023/03/20 01:40:50;;;;;;;3.10;2.50;;;;;;;9.23;100.00;96905.56;5093878;28;20191;-56
2023/03/20 01:43:19;;;;;;;3.03;2.83;;;;;;;9.27;100.00;96894.63;5095562;28;20179;-55
2023/03/20 01:45:55;;;;;;;2.87;2.67;;;;;;;9.24;100.00;96904.59;5091896;28;20286;-58
2023/03/20 01:48:23;;;;;;;3.67;2.90;;;;;;;9.29;100.00;96908.53;5073971;28;20202;-58
2023/03/20 01:50:50;;;;;;;4.00;3.70;;;;;;;9.29;100.00;96895.31;5070952;28;20613;-57
2023/03/20 01:53:21;;;;;;;5.00;4.27;;;;;;;9.23;100.00;96902.91;5070836;28;20273;-57
2023/03/20 01:55:48;;;;;;;5.20;4.73;;;;;;;9.22;100.00;96904.72;5070020;28;20654;-56
2023/03/20 01:58:18;;;;;;;6.43;5.93;;;;;;;9.21;100.00;96899.59;5071802;28;20211;-57
2023/03/20 02:00:47;;;;;;;5.10;4.80;;;;;;;9.22;100.00;96899.44;5071062;28;20198;-56
2023/03/20 02:03:14;;;;;;;6.20;5.80;;;;;;;9.25;100.00;96907.09;5071723;28;20218;-57
2023/03/20 02:05:40;;;;;;;6.10;5.60;;;;;;;9.33;100.00;96909.09;5074904;28;20558;-58
2023/03/20 02:08:15;;;;;;;6.33;5.83;;;;;;;9.36;100.00;96904.41;5075681;28;20210;-57
2023/03/20 02:10:44;;;;;;;6.80;6.20;;;;;;;9.38;100.00;96907.75;5074773;28;20207;-58
2023/03/20 02:13:12;;;;;;;7.40;6.90;;;;;;;9.35;100.00;96905.34;5075032;28;20232;-57
2023/03/20 02:15:57;;;;;;;7.40;6.70;;;;;;;9.27;100.00;96905.19;5074732;28;20706;-59
2023/03/20 02:18:24;;;;;;;6.53;5.93;;;;;;;9.34;100.00;96903.72;5075053;28;20202;-58
2023/03/20 02:21:03;;;;;;;6.93;6.33;;;;;;;9.32;100.00;96908.25;5073573;28;20210;-58
2023/03/20 02:23:51;;;;;;;7.07;6.47;;;;;;;9.29;100.00;96911.16;5075233;28;20205;-58
2023/03/20 02:26:44;;;;;;;6.90;6.30;;;;;;;9.22;100.00;96906.53;5074169;28;20206;-58
2023/03/20 02:29:49;;;;;;;6.17;5.67;;;;;;;9.15;100.00;96906.19;5074971;28;20209;-58
2023/03/20 02:32:53;;;;;;;5.33;4.93;;;;;;;9.23;100.00;96908.19;5043433;28;20208;-57
2023/03/20 02:35:36;;;;;;;5.27;4.90;;;;;;;9.19;100.00;96906.78;5042988;28;20446;-58
2023/03/20 02:38:24;;;;;;;5.20;4.80;;;;;;;9.17;100.00;96909.56;5074726;28;20194;-59
2023/03/20 02:40:56;;;;;;;5.07;4.73;;;;;;;9.15;100.00;96910.63;5074831;28;20209;-57
2023/03/20 02:43:27;;;;;;;4.73;4.33;;;;;;;9.16;100.00;96909.69;5075004;28;20213;-58
2023/03/20 02:45:57;;;;;;;5.57;5.07;;;;;;;9.15;100.00;96910.63;5074105;28;20639;-58
2023/03/20 02:48:33;;;;;;;5.17;4.70;;;;;;;9.17;100.00;96914.00;5074563;28;20214;-59
2023/03/20 02:51:02;;;;;;;4.53;4.23;;;;;;;9.24;100.00;96915.16;5073394;28;20238;-58
2023/03/20 02:53:37;;;;;;;5.73;5.30;;;;;;;9.20;100.00;96916.38;5074267;28;20211;-59
2023/03/20 02:56:11;;;;;;;5.33;4.93;;;;;;;9.37;100.00;96927.19;5074311;28;20567;-58
2023/03/20 02:58:43;;;;;;;5.30;4.90;;;;;;;9.38;100.00;96922.75;5074365;28;20205;-59
2023/03/20 03:03:55;;;;;;;4.20;3.90;;;;;;;9.31;100.00;96926.88;5074103;28;20542;-60
2023/03/20 03:06:24;;;;;;;4.70;4.40;;;;;;;9.22;100.00;96927.63;5074191;28;20210;-59
2023/03/20 03:08:56;;;;;;;4.80;4.50;;;;;;;9.23;100.00;96926.66;5074042;28;20202;-58
2023/03/20 03:11:23;;;;;;;4.50;4.20;;;;;;;9.25;100.00;96928.22;5073402;28;20651;-59
2023/03/20 03:13:52;;;;;;;4.77;4.47;;;;;;;9.34;100.00;96931.91;5073895;28;20250;-59
2023/03/20 03:16:21;;;;;;;4.90;4.50;;;;;;;9.21;100.00;96931.25;5072438;28;20206;-58
2023/03/20 03:18:49;;;;;;;4.53;4.23;;;;;;;9.15;100.00;96932.59;5073225;28;20294;-59
2023/03/20 03:21:17;;;;;;;4.90;4.60;;;;;;;9.17;100.00;96935.09;5073447;28;20279;-59
2023/03/20 03:23:46;;;;;;;4.77;4.37;;;;;;;9.14;100.00;96935.38;5074175;28;20210;-59
2023/03/20 03:26:18;;;;;;;4.50;4.20;;;;;;;9.12;100.00;96934.63;5074039;28;20205;-58
2023/03/20 03:28:48;;;;;;;4.17;3.87;;;;;;;9.18;100.00;96939.41;5072279;28;20542;-58
2023/03/20 03:31:17;;;;;;;4.60;4.30;;;;;;;9.17;100.00;96953.56;5073410;28;20202;-58
2023/03/20 03:33:47;;;;;;;4.60;4.30;;;;;;;9.08;100.00;96960.44;5073109;28;20639;-58
2023/03/20 03:36:21;;;;;;;4.77;4.47;;;;;;;9.10;100.00;96944.50;5072226;28;20221;-57
2023/03/20 03:38:55;;;;;;;4.83;4.50;;;;;;;9.08;100.00;96956.94;5073492;28;20213;-59
2023/03/20 03:41:27;;;;;;;4.80;4.40;;;;;;;9.18;100.00;96953.44;5069016;28;20210;-59
2023/03/20 03:43:58;;;;;;;4.30;4.00;;;;;;;9.24;100.00;96960.03;5071071;28;20214;-58
2023/03/20 03:46:29;;;;;;;5.40;4.70;;;;;;;9.13;100.00;96960.06;5073306;28;20547;-59
2023/03/20 03:48:57;;;;;;;4.83;4.40;;;;;;;9.24;100.00;96962.66;5073391;28;20195;-58
2023/03/20 03:51:25;;;;;;;5.00;4.60;;;;;;;9.30;100.00;96967.41;5072231;28;20201;-59
2023/03/20 03:53:55;;;;;;;4.93;4.63;;;;;;;9.29;100.00;96965.72;5072211;28;20227;-58
2023/03/20 03:56:26;;;;;;;5.30;4.90;;;;;;;9.29;100.00;96973.66;5072648;28;20202;-59
2023/03/20 03:58:55;;;;;;;5.60;5.10;;;;;;;9.32;100.00;96973.41;5072848;28;20852;-57
2023/03/20 04:01:23;;;;;;;5.20;4.90;;;;;;;9.36;100.00;96972.19;5072307;28;20217;-58
2023/03/20 04:03:52;;;;;;;5.20;4.70;;;;;;;9.31;100.00;96969.09;5091131;28;20194;-56
2023/03/20 04:06:20;;;;;;;6.53;5.13;;;;;;;9.30;100.00;96962.16;5096963;28;20246;-56
2023/03/20 04:08:46;;;;;;;6.00;5.40;;;;;;;9.27;100.00;96965.03;5095418;28;20205;-55
2023/03/20 04:11:17;;;;;;;5.20;4.80;;;;;;;9.27;100.00;96968.53;5078110;28;20214;-56
2023/03/20 04:13:47;;;;;;;5.80;5.30;;;;;;;9.27;100.00;96978.22;5073837;28;20639;-58
2023/03/20 04:16:13;;;;;;;5.50;4.90;;;;;;;9.23;100.00;96982.94;5073565;28;20634;-56
2023/03/20 04:18:40;;;;;;;5.53;5.10;;;;;;;9.11;100.00;96983.91;5073118;28;20226;-58
2023/03/20 04:21:07;;;;;;;5.80;5.23;;;;;;;9.06;100.00;96986.13;5072099;28;20658;-56
2023/03/20 04:23:34;;;;;;;5.17;4.77;;;;;;;9.12;100.00;96984.75;5073140;28;20251;-57
2023/03/20 04:26:01;;;;;;;5.43;4.70;;;;;;;9.15;100.00;96989.78;5072917;28;20218;-57
2023/03/20 04:28:28;;;;;;;5.23;4.83;;;;;;;9.08;100.00;96985.97;5072481;28;20523;-57
2023/03/20 04:30:57;;;;;;;6.03;5.43;;;;;;;9.11;100.00;96994.47;5071997;28;20198;-57
2023/03/20 04:33:25;;;;;;;6.27;5.67;;;;;;;9.10;100.00;96986.69;5072461;28;20214;-57
2023/03/20 04:35:52;;;;;;;6.10;5.50;;;;;;;9.10;100.00;96989.34;5075943;28;20226;-57
2023/03/20 04:38:19;;;;;;;6.13;5.60;;;;;;;9.06;100.00;96990.56;5080342;28;20263;-57
2023/03/20 04:40:47;;;;;;;6.17;5.63;;;;;;;9.00;100.00;96987.44;5078893;28;20598;-57
2023/03/20 04:43:15;;;;;;;6.50;5.93;;;;;;;8.96;100.00;96988.66;5072216;28;20217;-56
2023/03/20 04:45:41;;;;;;;6.33;5.73;;;;;;;8.98;100.00;96994.66;5072487;28;20203;-57
2023/03/20 04:48:09;;;;;;;6.60;5.83;;;;;;;8.98;100.00;96993.81;5071058;28;20199;-56
2023/03/20 04:50:36;;;;;;;7.03;6.13;;;;;;;8.88;100.00;96987.59;5070986;28;20268;-57
2023/03/20 04:53:03;;;;;;;6.27;5.57;;;;;;;8.89;100.00;96990.09;5071294;28;20195;-56
2023/03/20 04:55:29;;;;;;;6.30;5.70;;;;;;;8.84;100.00;96991.44;5078133;28;20224;-56
2023/03/20 04:57:56;;;;;;;6.23;5.63;;;;;;;8.86;100.00;96987.72;5078005;28;20256;-57
2023/03/20 05:00:22;;;;;;;6.40;5.53;;;;;;;8.79;100.00;96993.59;5080429;28;20203;-57
2023/03/20 05:02:49;;;;;;;6.57;5.87;;;;;;;8.79;100.00;96988.34;5072323;28;20198;-56
2023/03/20 05:05:18;;;;;;;6.90;5.97;;;;;;;8.76;100.00;96989.44;5071481;28;20202;-57
2023/03/20 05:07:44;;;;;;;5.87;5.27;;;;;;;8.82;100.00;96983.66;5071751;28;20545;-58
2023/03/20 05:10:11;;;;;;;6.50;5.67;;;;;;;8.73;100.00;96978.28;5068398;28;20654;-58
2023/03/20 05:12:37;;;;;;;6.83;5.70;;;;;;;8.68;100.00;96980.47;5071519;28;20194;-57
2023/03/20 05:15:05;;;;;;;5.90;5.30;;;;;;;8.68;100.00;96981.28;5070761;28;20222;-59
2023/03/20 05:17:31;;;;;;;6.00;5.13;;;;;;;8.60;100.00;96978.44;5071628;28;20218;-57
2023/03/20 05:19:58;;;;;;;8.93;7.07;;;;;;;8.60;100.00;96973.19;5071299;28;20202;-58
2023/03/20 05:22:29;;;;;;;6.20;5.60;;;;;;;8.62;100.00;96971.25;5070812;28;20233;-56
2023/03/20 05:24:55;;;;;;;5.33;4.83;;;;;;;8.56;100.00;96978.81;5078679;28;20252;-55
2023/03/20 05:27:22;;;;;;;7.50;5.40;;;;;;;8.40;100.00;96979.19;5081136;28;20271;-57
2023/03/20 05:29:48;;;;;;;7.27;5.03;;;;;;;8.36;100.00;96986.47;5091481;28;20182;-57
2023/03/20 05:32:16;;;;;;;5.53;5.03;;;;;;;8.35;100.00;96987.47;5093089;28;20186;-56
2023/03/20 05:34:43;;;;;;;7.87;5.43;;;;;;;8.27;100.00;96989.81;5095540;28;20356;-55
2023/03/20 05:37:09;;;;;;;6.73;5.60;;;;;;;8.26;100.00;96992.56;5095217;28;20201;-57
2023/03/20 05:39:39;;;;;;;7.00;5.43;;;;;;;8.19;100.00;96999.28;5082514;28;20222;-57
2023/03/20 05:42:05;;;;;;;9.27;7.60;;;;;;;8.12;100.00;97008.59;5071038;28;20256;-57
2023/03/20 05:44:31;;;;;;;8.63;7.43;;;;;;;8.09;100.00;97009.69;5071137;28;20509;-57
2023/03/20 05:46:58;;;;;;;9.13;7.70;;;;;;;8.13;100.00;97015.56;5070053;28;20532;-57
2023/03/20 05:49:24;;;;;;;8.83;7.67;;;;;;;7.96;100.00;97009.81;5070504;28;20234;-57
2023/03/20 05:51:51;;;;;;;9.10;7.17;;;;;;;8.00;100.00;97019.16;5069706;28;20639;-57
2023/03/20 05:54:17;;;;;;;6.40;5.80;;;;;;;7.88;100.00;97020.09;5067940;28;20203;-57
2023/03/20 05:56:45;;;;;;;6.10;5.50;;;;;;;7.94;100.00;97016.97;5071346;28;20527;-57
2023/03/20 05:59:12;;;;;;;6.13;5.53;;;;;;;7.99;100.00;97017.47;5070516;28;20194;-57
2023/03/20 06:01:39;;;;;;;6.07;5.50;;;;;;;8.04;100.00;97018.91;5070237;28;20214;-56
2023/03/20 06:04:07;;;;;;;5.97;5.37;;;;;;;8.16;100.00;97017.97;5069106;28;20213;-55
2023/03/20 06:06:36;;;;;;;6.97;6.27;;;;;;;8.16;100.00;97016.16;5070681;28;20281;-58
2023/03/20 06:09:03;;;;;;;8.00;6.97;;;;;;;8.20;100.00;97008.88;5070860;28;20642;-56
2023/03/20 06:11:30;;;;;;;6.77;6.17;;;;;;;8.15;100.00;97003.13;5071516;28;20230;-57
2023/03/20 06:13:58;;;;;;;9.93;5.70;;;;;;;8.28;100.00;97009.09;5070843;28;20218;-57
2023/03/20 06:16:25;;;;;;;6.67;5.60;;;;;;;8.27;100.00;97012.69;5069891;28;20222;-57
2023/03/20 06:18:52;;;;;;;6.03;5.43;;;;;;;8.37;100.00;97003.13;5070463;28;20583;-57
2023/03/20 06:21:18;;;;;;;5.60;5.10;;;;;;;8.79;100.00;97005.00;5070895;28;20202;-57
2023/03/20 06:23:45;;;;;;;6.00;5.33;;;;;;;9.39;100.00;97008.88;5070059;28;20567;-57
2023/03/20 06:26:11;;;;;;;5.20;4.60;;;;;;;10.20;100.00;97008.19;5070940;28;20256;-57
2023/03/20 06:28:38;;;;;;;5.17;4.27;;;;;;;10.80;100.00;97004.66;5094109;28;20185;-60
2023/03/20 06:31:08;;;;;;;4.77;4.30;;;;;;;11.42;100.00;97006.97;5092485;28;20195;-55
2023/03/20 06:33:35;;;;;;;4.23;3.93;;;;;;;11.79;100.00;97009.78;5089298;28;20187;-57
2023/03/20 06:36:02;;;;;;;4.77;4.37;;;;;;;12.91;91.62;97010.50;5069683;28;20218;-57
2023/03/20 06:38:28;;;;;;;4.05;3.47;;;;;;;13.69;89.57;97010.78;5070169;28;20252;-56
2023/03/20 06:40:55;;;;;;;3.67;3.38;;;;;;;13.68;86.89;97009.97;5070490;28;20221;-56
2023/03/20 06:43:21;;;;;;;3.30;3.10;;;;;;;14.23;84.90;97009.72;5069686;28;20234;-58
2023/03/20 06:45:48;;;;;;;3.10;2.90;;;;;;;14.56;81.54;97013.44;5071003;28;20217;-57
2023/03/20 06:48:20;;;;;;;3.35;3.05;;;;;;;16.07;74.95;97014.97;5070696;28;20206;-58
2023/03/20 06:50:47;;;;;;;2.63;2.40;;;;;;;16.35;72.92;97017.09;5072748;28;20596;-55
2023/03/20 06:53:14;;;;;;;2.70;2.50;;;;;;;17.17;68.05;97028.38;5074463;28;20214;-57
2023/03/20 06:55:40;;;;;;;1.67;1.58;;;;;;;17.93;64.42;97028.41;5073049;28;20234;-60
2023/03/20 06:58:07;;;;;;;1.58;1.48;;;;;;;17.52;66.84;97030.50;5074194;28;20276;-57
2023/03/20 07:00:36;;;;;;;1.80;1.70;;;;;;;18.05;60.94;97023.47;5073668;28;20198;-56
2023/03/20 07:03:03;;;;;;;1.70;1.60;;;;;;;18.24;58.83;97031.84;5074216;28;20295;-57
2023/03/20 07:05:31;;;;;;;2.13;2.03;;;;;;;17.76;62.95;97032.22;5072083;28;20695;-56
2023/03/20 07:07:58;;;;;;;2.50;2.30;;;;;;;16.98;66.47;97039.47;5071497;28;20203;-56
2023/03/20 07:10:24;;;;;;;2.63;2.42;;;;;;;16.62;70.37;97041.75;5073257;28;20293;-56
2023/03/20 07:12:51;;;;;;;1.90;1.70;;;;;;;16.06;67.51;97046.13;5072470;28;20595;-56
2023/03/20 07:15:18;;;;;;;2.10;2.00;;;;;;;15.16;73.11;97043.47;5071922;28;20501;-56
2023/03/20 07:17:44;;;;;;;1.90;1.80;;;;;;;14.46;72.70;97042.81;5073938;28;20209;-56
2023/03/20 07:20:12;;;;;;;1.80;1.70;;;;;;;13.61;77.21;97040.78;5073066;28;20591;-54
2023/03/20 07:22:41;;;;;;;2.17;2.08;;;;;;;13.22;80.69;97029.59;5074169;28;20206;-57
2023/03/20 07:25:08;;;;;;;4.15;2.70;;;;;;;12.84;82.23;97035.94;5073290;28;20298;-57
2023/03/20 07:27:36;;;;;;;2.70;2.50;;;;;;;12.51;87.60;97028.53;5071502;28;20241;-56
2023/03/20 07:30:03;;;;;;;2.95;2.70;;;;;;;12.16;89.79;97034.53;5073349;28;20279;-56
2023/03/20 07:32:29;;;;;;;2.45;2.28;;;;;;;12.11;87.84;97018.22;5073284;28;20213;-55
2023/03/20 07:34:56;;;;;;;2.60;2.40;;;;;;;11.81;93.72;97024.53;5073208;28;20276;-55
2023/03/20 07:37:23;;;;;;;2.88;2.72;;;;;;;11.72;93.80;97028.06;5069427;28;20202;-56
2023/03/20 07:39:50;;;;;;;2.30;2.20;;;;;;;11.49;93.57;97026.63;5069734;28;20761;-57
2023/03/20 07:42:17;;;;;;;2.67;2.53;;;;;;;11.41;94.45;97031.75;5072990;28;20867;-57
2023/03/20 07:44:44;;;;;;;2.43;2.33;;;;;;;11.53;94.48;97029.81;5072544;28;20198;-57
2023/03/20 07:47:11;;;;;;;2.93;2.23;;;;;;;11.58;94.01;97038.19;5070762;28;20293;-56
2023/03/20 07:49:37;;;;;;;3.07;2.40;;;;;;;11.31;100.00;97036.22;5072074;28;20230;-55
2023/03/20 07:52:04;;;;;;;2.50;2.30;;;;;;;11.34;100.00;97025.34;5072542;28;20208;-55
2023/03/20 07:54:30;;;;;;;3.60;2.50;;;;;;;11.35;97.58;97025.22;5072601;28;20284;-55
2023/03/20 07:56:58;;;;;;;2.57;2.37;;;;;;;11.38;94.28;97024.09;5073167;28;20222;-57
2023/03/20 07:59:25;;;;;;;2.57;2.47;;;;;;;11.41;97.55;97024.66;5073045;28;20210;-56
2023/03/20 08:01:51;;;;;;;2.37;2.27;;;;;;;11.44;99.26;97031.50;5072654;28;20552;-57
2023/03/20 08:04:21;;;;;;;2.30;2.03;;;;;;;11.29;100.00;97028.44;5072846;28;20298;-57
2023/03/20 08:06:47;;;;;;;2.33;2.10;;;;;;;11.16;99.18;97037.63;5072551;28;20285;-57
2023/03/20 08:09:14;;;;;;;2.10;1.87;;;;;;;11.11;100.00;97039.81;5072801;28;20306;-57
2023/03/20 08:11:40;;;;;;;2.50;2.30;;;;;;;11.04;100.00;97044.84;5072604;28;20198;-54
2023/03/20 08:14:08;;;;;;;2.20;2.10;;;;;;;10.86;100.00;97049.09;5072604;28;20221;-57
2023/03/20 08:16:35;;;;;;;2.23;2.00;;;;;;;10.74;100.00;97048.34;5072776;28;20222;-55
2023/03/20 08:19:05;;;;;;;2.60;2.40;;;;;;;10.93;100.00;97048.41;5072861;28;20297;-57
2023/03/20 08:21:32;;;;;;;2.37;2.20;;;;;;;10.77;100.00;97048.06;5071379;28;20647;-57
2023/03/20 08:23:58;;;;;;;2.40;2.20;;;;;;;10.69;100.00;97044.44;5072375;28;20233;-58
2023/03/20 08:26:26;;;;;;;2.90;2.70;;;;;;;10.86;100.00;97041.16;5072857;28;20210;-56
2023/03/20 08:28:53;;;;;;;2.93;2.73;;;;;;;10.91;100.00;97050.34;5074193;28;20210;-56
2023/03/20 08:31:23;;;;;;;2.87;2.67;;;;;;;10.93;99.75;97045.78;5075335;28;20206;-57
2023/03/20 08:33:50;;;;;;;3.60;3.30;;;;;;;11.02;99.00;97056.53;5074490;28;20198;-57
2023/03/20 08:36:19;;;;;;;3.20;3.00;;;;;;;11.09;94.00;97049.72;5074633;28;20222;-57
2023/03/20 08:38:46;;;;;;;3.27;2.80;;;;;;;11.17;91.73;97057.78;5077170;28;20263;-58
2023/03/20 08:41:12;;;;;;;3.40;3.10;;;;;;;11.13;92.72;97051.94;5079273;28;20223;-58
2023/03/20 08:43:39;;;;;;;2.90;2.70;;;;;;;11.39;91.66;97049.63;5082614;28;20232;-57
2023/03/20 08:46:06;;;;;;;3.57;3.27;;;;;;;11.71;92.41;97044.91;5090675;28;20195;-57
2023/03/20 08:48:34;;;;;;;4.50;2.73;;;;;;;11.78;87.93;97046.03;5087688;28;20206;-56
2023/03/20 08:51:01;;;;;;;2.57;2.47;;;;;;;12.12;94.52;97045.53;5071075;28;20249;-57
2023/03/20 08:53:28;;;;;;;2.10;2.00;;;;;;;12.38;88.73;97050.09;5071257;28;20203;-57
2023/03/20 08:55:55;;;;;;;2.47;2.30;;;;;;;12.50;87.75;97042.81;5070446;28;20223;-57
2023/03/20 08:58:23;;;;;;;2.30;2.20;;;;;;;12.65;87.15;97046.66;5087948;28;20206;-57
2023/03/20 09:00:49;;;;;;;3.03;1.90;;;;;;;12.87;85.37;97046.28;5093262;28;20195;-56
2023/03/20 09:03:17;;;;;;;1.17;1.17;;;;;;;13.02;79.23;97048.44;5085796;28;20217;-57
2023/03/20 09:05:46;;;;;;;1.60;1.50;;;;;;;13.24;79.88;97048.91;5083014;28;20195;-57
2023/03/20 09:08:13;;;;;;;0.90;0.90;;;;;;;13.41;77.83;97049.91;5086865;28;20214;-58
2023/03/20 09:10:40;;;;;;;1.73;1.20;;;;;;;13.49;78.51;97055.31;5071456;28;20578;-57
2023/03/20 09:13:07;;;;;;;1.80;1.07;;;;;;;13.47;75.23;97049.28;5070755;28;20899;-58
2023/03/20 09:15:34;;;;;;;1.17;1.05;;;;;;;13.49;80.75;97057.97;5070800;28;20226;-57
2023/03/20 09:18:01;;;;;;;0.93;0.93;;;;;;;13.82;75.65;97049.28;5070259;28;20206;-56
2023/03/20 09:20:29;;;;;;;6.13;1.70;;;;;;;13.70;73.57;97050.53;5071254;28;20821;-58
2023/03/20 09:22:57;;;;;;;4.32;1.33;;;;;;;13.70;74.47;97055.00;5070730;28;20241;-57
2023/03/20 09:25:23;;;;;;;0.93;0.90;;;;;;;13.69;76.90;97054.16;5070167;28;20209;-57
2023/03/20 09:27:54;;;;;;;1.15;1.05;;;;;;;13.35;73.72;97054.00;5068375;28;20207;-58
2023/03/20 09:30:20;;;;;;;1.67;1.40;;;;;;;13.21;73.36;97053.69;5071116;28;20301;-57
2023/03/20 09:32:47;;;;;;;1.35;1.25;;;;;;;12.96;76.82;97056.03;5070471;28;20210;-57
2023/03/20 09:35:13;;;;;;;1.50;1.40;;;;;;;12.82;79.02;97053.81;5071363;28;20228;-58
2023/03/20 09:37:40;;;;;;;1.00;1.00;;;;;;;12.75;82.07;97058.06;5069673;28;20222;-57
2023/03/20 09:40:10;;;;;;;2.00;0.70;;;;;;;12.70;74.18;97056.81;5070950;28;20540;-57
2023/03/20 09:42:43;;;;;;;1.90;0.60;;;;;;;12.63;74.21;97058.38;5069986;28;20209;-56
2023/03/20 09:45:11;;;;;;;1.23;1.00;;;;;;;12.54;74.96;97053.97;5069742;28;20674;-57
2023/03/20 09:47:43;;;;;;;1.87;0.90;;;;;;;12.44;77.45;97059.28;5071943;28;20191;-58
2023/03/20 09:50:24;;;;;;;1.00;0.80;;;;;;;12.45;83.43;97055.66;5070736;28;20248;-57
2023/03/20 09:52:58;;;;;;;1.20;0.90;;;;;;;12.48;84.13;97047.41;5069934;28;20259;-57
2023/03/20 09:55:32;;;;;;;1.37;1.27;;;;;;;12.49;81.58;97059.69;5070604;28;20534;-56
2023/03/20 09:58:03;;;;;;;1.20;1.10;;;;;;;12.66;84.50;97058.09;5070405;28;20202;-57
2023/03/20 10:00:32;;;;;;;1.40;1.30;;;;;;;12.70;85.63;97060.31;5070557;28;20206;-57
2023/03/20 10:03:01;;;;;;;1.03;0.83;;;;;;;12.60;83.90;97059.53;5069409;28;20218;-57
2023/03/20 10:05:30;;;;;;;1.57;1.47;;;;;;;12.68;84.04;97049.00;5069314;28;20210;-56
2023/03/20 10:07:58;;;;;;;2.33;1.47;;;;;;;12.83;88.48;97052.84;5071494;28;20355;-58
2023/03/20 10:10:30;;;;;;;8.70;2.50;;;;;;;12.75;82.35;97052.75;5070517;28;20643;-57
2023/03/20 10:13:05;;;;;;;7.07;1.90;;;;;;;12.67;82.41;97043.84;5071139;28;20202;-56
2023/03/20 10:15:46;;;;;;;1.97;1.17;;;;;;;12.85;82.14;97047.41;5071328;28;20194;-58
2023/03/20 10:18:18;;;;;;;1.57;1.47;;;;;;;12.90;78.08;97050.44;5071013;28;20203;-58
2023/03/20 10:20:51;;;;;;;1.20;1.20;;;;;;;12.95;78.87;97051.69;5070795;28;20209;-59
2023/03/20 10:23:25;;;;;;;0.80;0.80;;;;;;;13.09;76.71;97049.50;5070353;28;20657;-58
2023/03/20 10:25:56;;;;;;;1.50;1.30;;;;;;;13.26;77.99;97046.06;5073532;28;20647;-58
2023/03/20 10:28:26;;;;;;;0.63;0.63;;;;;;;13.41;80.04;97044.59;5075274;28;20217;-57
2023/03/20 10:31:01;;;;;;;2.27;0.93;;;;;;;13.41;76.63;97049.91;5073131;28;20195;-57
2023/03/20 10:33:37;;;;;;;0.60;0.60;;;;;;;13.45;73.87;97041.50;5074120;28;20364;-57
2023/03/20 10:36:13;;;;;;;1.60;1.08;;;;;;;13.45;70.93;97054.78;5074926;28;20218;-57
2023/03/20 10:38:42;;;;;;;1.45;1.00;;;;;;;13.49;74.49;97051.81;5073313;28;20569;-58
2023/03/20 10:41:15;;;;;;;1.05;0.80;;;;;;;13.39;72.61;97049.22;5072870;28;20256;-58
2023/03/20 10:43:42;;;;;;;1.30;1.20;;;;;;;13.34;75.10;97039.03;5073807;28;20647;-58
2023/03/20 10:46:12;;;;;;;0.80;0.80;;;;;;;13.40;79.31;97034.94;5076448;28;20841;-58
2023/03/20 10:48:41;;;;;;;0.90;0.90;;;;;;;13.41;76.04;97028.66;5083149;28;20294;-58
2023/03/20 10:51:13;;;;;;;1.20;1.10;;;;;;;13.42;73.92;97028.50;5081859;28;20287;-56
2023/03/20 10:53:46;;;;;;;1.07;0.90;;;;;;;13.37;74.78;97028.13;5082709;28;20194;-57
2023/03/20 10:56:16;;;;;;;0.98;0.98;;;;;;;13.35;71.98;97032.75;5074333;28;20207;-58
2023/03/20 10:58:45;;;;;;;1.10;1.00;;;;;;;13.42;73.99;97035.63;5074145;28;20206;-58
2023/03/20 11:01:11;;;;;;;0.80;0.73;;;;;;;13.38;74.23;97026.28;5074335;28;20216;-55
2023/03/20 11:03:40;;;;;;;1.03;0.90;;;;;;;13.34;75.57;97035.56;5073729;28;20626;-57
2023/03/20 11:06:12;;;;;;;1.00;0.93;;;;;;;13.35;73.72;97035.41;5073676;28;20637;-58
2023/03/20 11:08:41;;;;;;;2.75;0.90;;;;;;;13.44;74.74;97038.97;5072365;28;20693;-56
2023/03/20 11:11:08;;;;;;;1.33;1.23;;;;;;;13.52;73.81;97030.25;5073453;28;20623;-57
2023/03/20 11:13:41;;;;;;;0.88;0.88;;;;;;;13.67;77.59;97034.88;5073180;28;20343;-56
2023/03/20 11:16:11;;;;;;;0.90;0.90;;;;;;;13.92;77.73;97034.06;5073366;28;20613;-56
2023/03/20 11:18:38;;;;;;;0.95;0.95;;;;;;;14.14;72.89;97032.75;5089565;28;20212;-56
2023/03/20 11:21:08;;;;;;;1.00;1.00;;;;;;;14.32;72.34;97030.88;5092676;28;20202;-57
2023/03/20 11:23:35;;;;;;;0.90;0.90;;;;;;;14.54;70.64;97034.03;5079838;28;20631;-56
2023/03/20 11:26:03;;;;;;;0.52;0.52;;;;;;;14.85;74.13;97033.34;5074801;28;20198;-56
2023/03/20 11:28:35;;;;;;;1.05;0.90;;;;;;;14.99;69.04;97033.72;5072798;28;20210;-58
2023/03/20 11:31:05;;;;;;;0.73;0.73;;;;;;;15.29;71.45;97018.03;5073057;28;20285;-58
2023/03/20 11:33:33;;;;;;;1.13;1.02;;;;;;;15.36;65.82;97023.53;5073588;28;20210;-57
2023/03/20 11:36:00;;;;;;;0.75;0.75;;;;;;;15.46;66.49;97026.88;5091736;28;20203;-57
2023/03/20 11:38:29;;;;;;;1.17;0.70;;;;;;;15.55;65.93;97022.44;5099608;28;20185;-57
2023/03/20 11:40:56;;;;;;;2.97;1.20;;;;;;;15.51;66.92;97024.63;5096719;28;20218;-55
2023/03/20 11:43:24;;;;;;;1.05;0.95;;;;;;;15.63;65.13;97027.78;5093589;28;20209;-56
2023/03/20 11:45:55;;;;;;;1.60;1.05;;;;;;;15.56;66.47;97029.44;5081741;28;20195;-56